createdAt,value
2022-12-23T00:00:08.378Z,97319.00
2022-12-23T00:00:18.380Z,97321.00
2022-12-23T00:00:28.413Z,97319.00
2022-12-23T00:00:38.541Z,97315.00
2022-12-23T00:00:48.552Z,97317.00
2022-12-23T00:00:58.584Z,97319.00
2022-12-23T00:01:08.595Z,97317.00
2022-12-23T00:01:18.729Z,97317.00
2022-12-23T00:01:28.929Z,97321.00
2022-12-23T00:01:39.015Z,97315.00
2022-12-23T00:01:49.171Z,97317.00
2022-12-23T00:01:59.440Z,97319.00
2022-12-23T00:02:09.601Z,97315.00
2022-12-23T00:02:19.676Z,97315.00
2022-12-23T00:02:29.943Z,97315.00
2022-12-23T00:02:40.084Z,97319.00
2022-12-23T00:02:50.221Z,97319.00
2022-12-23T00:03:00.438Z,97317.00
2022-12-23T00:03:10.494Z,97319.00
2022-12-23T00:03:20.436Z,97317.00
2022-12-23T00:03:30.553Z,97319.00
2022-12-23T00:03:40.574Z,97317.00
2022-12-23T00:03:50.469Z,97317.00
2022-12-23T00:04:00.611Z,97317.00
2022-12-23T00:04:10.898Z,97315.00
2022-12-23T00:04:20.907Z,97317.00
2022-12-23T00:04:30.812Z,97315.00
2022-12-23T00:04:41.190Z,97319.00
2022-12-23T00:04:51.192Z,97323.00
2022-12-23T00:05:01.219Z,97325.00
2022-12-23T00:05:11.210Z,97319.00
2022-12-23T00:05:21.235Z,97323.00
2022-12-23T00:05:37.334Z,97321.00
2022-12-23T00:05:41.252Z,97321.00
2022-12-23T00:05:51.267Z,97325.00
2022-12-23T00:06:01.285Z,97323.00
2022-12-23T00:06:11.283Z,97325.00
2022-12-23T00:06:21.309Z,97325.00
2022-12-23T00:06:31.427Z,97323.00
2022-12-23T00:06:41.436Z,97323.00
2022-12-23T00:06:51.457Z,97321.00
2022-12-23T00:07:01.439Z,97323.00
2022-12-23T00:07:11.445Z,97319.00
2022-12-23T00:07:21.446Z,97319.00
2022-12-23T00:07:31.456Z,97319.00
2022-12-23T00:07:41.467Z,97317.00
2022-12-23T00:07:51.525Z,97317.00
2022-12-23T00:08:01.521Z,97317.00
2022-12-23T00:08:11.557Z,97321.00
2022-12-23T00:08:21.578Z,97317.00
2022-12-23T00:08:31.595Z,97317.00
2022-12-23T00:08:41.601Z,97315.00
2022-12-23T00:08:51.600Z,97315.00
2022-12-23T00:09:01.594Z,97313.00
2022-12-23T00:09:11.599Z,97313.00
2022-12-23T00:09:21.602Z,97311.00
2022-12-23T00:09:31.613Z,97309.00
2022-12-23T00:09:41.628Z,97309.00
2022-12-23T00:09:51.630Z,97313.00
2022-12-23T00:10:01.703Z,97311.00
2022-12-23T00:10:11.687Z,97311.00
2022-12-23T00:10:21.811Z,97311.00
2022-12-23T00:10:32.076Z,97311.00
2022-12-23T00:10:42.184Z,97313.00
2022-12-23T00:10:52.183Z,97313.00
2022-12-23T00:11:02.466Z,97311.00
2022-12-23T00:11:12.443Z,97309.00
2022-12-23T00:11:22.578Z,97311.00
2022-12-23T00:11:32.833Z,97315.00
2022-12-23T00:11:42.837Z,97315.00
2022-12-23T00:11:52.847Z,97317.00
2022-12-23T00:12:02.868Z,97311.00
2022-12-23T00:12:12.905Z,97313.00
2022-12-23T00:12:22.899Z,97311.00
2022-12-23T00:12:32.905Z,97321.00
2022-12-23T00:12:42.910Z,97319.00
2022-12-23T00:12:52.917Z,97317.00
2022-12-23T00:13:02.934Z,97321.00
2022-12-23T00:13:12.937Z,97323.00
2022-12-23T00:13:22.938Z,97323.00
2022-12-23T00:13:32.959Z,97325.00
2022-12-23T00:13:42.962Z,97325.00
2022-12-23T00:13:52.966Z,97323.00
2022-12-23T00:14:03.091Z,97325.00
2022-12-23T00:14:18.488Z,97325.00
2022-12-23T00:14:23.213Z,97321.00
2022-12-23T00:14:33.215Z,97319.00
2022-12-23T00:14:43.226Z,97317.00
2022-12-23T00:14:53.245Z,97321.00
2022-12-23T00:15:03.247Z,97321.00
2022-12-23T00:15:13.247Z,97321.00
2022-12-23T00:15:23.253Z,97319.00
2022-12-23T00:15:33.273Z,97317.00
2022-12-23T00:15:43.273Z,97317.00
2022-12-23T00:15:53.292Z,97319.00
2022-12-23T00:16:03.409Z,97323.00
2022-12-23T00:16:13.427Z,97321.00
2022-12-23T00:16:23.460Z,97321.00
2022-12-23T00:16:33.474Z,97323.00
2022-12-23T00:16:43.606Z,97323.00
2022-12-23T00:16:53.960Z,97321.00
2022-12-23T00:17:09.283Z,97321.00
2022-12-23T00:17:23.486Z,97319.00
2022-12-23T00:17:24.327Z,97321.00
2022-12-23T00:17:34.215Z,97315.00
2022-12-23T00:17:44.232Z,97313.00
2022-12-23T00:17:54.231Z,97313.00
2022-12-23T00:18:04.242Z,97317.00
2022-12-23T00:18:14.251Z,97315.00
2022-12-23T00:18:24.284Z,97317.00
2022-12-23T00:18:34.263Z,97315.00
2022-12-23T00:18:44.264Z,97311.00
2022-12-23T00:18:54.272Z,97307.00
2022-12-23T00:19:04.402Z,97307.00
2022-12-23T00:19:14.425Z,97311.00
2022-12-23T00:19:24.437Z,97311.00
2022-12-23T00:19:34.448Z,97313.00
2022-12-23T00:19:44.448Z,97315.00
2022-12-23T00:19:54.709Z,97315.00
2022-12-23T00:20:04.734Z,97313.00
2022-12-23T00:20:14.744Z,97313.00
2022-12-23T00:20:24.732Z,97309.00
2022-12-23T00:20:34.739Z,97307.00
2022-12-23T00:20:44.876Z,97311.00
2022-12-23T00:20:54.879Z,97309.00
2022-12-23T00:21:08.620Z,97315.00
2022-12-23T00:21:14.936Z,97317.00
2022-12-23T00:21:24.940Z,97319.00
2022-12-23T00:21:34.938Z,97315.00
2022-12-23T00:21:45.102Z,97317.00
2022-12-23T00:21:55.088Z,97313.00
2022-12-23T00:22:05.208Z,97311.00
2022-12-23T00:22:15.223Z,97315.00
2022-12-23T00:22:25.498Z,97311.00
2022-12-23T00:22:35.497Z,97311.00
2022-12-23T00:22:45.512Z,97313.00
2022-12-23T00:22:55.509Z,97313.00
2022-12-23T00:23:05.638Z,97315.00
2022-12-23T00:23:15.636Z,97317.00
2022-12-23T00:23:25.752Z,97317.00
2022-12-23T00:23:35.760Z,97315.00
2022-12-23T00:23:45.767Z,97317.00
2022-12-23T00:23:55.774Z,97321.00
2022-12-23T00:24:05.909Z,97319.00
2022-12-23T00:24:15.908Z,97317.00
2022-12-23T00:24:25.910Z,97319.00
2022-12-23T00:24:35.919Z,97319.00
2022-12-23T00:24:45.948Z,97319.00
2022-12-23T00:24:55.948Z,97317.00
2022-12-23T00:25:05.940Z,97313.00
2022-12-23T00:25:16.065Z,97315.00
2022-12-23T00:25:26.074Z,97315.00
2022-12-23T00:25:36.197Z,97313.00
2022-12-23T00:25:46.337Z,97317.00
2022-12-23T00:25:56.327Z,97315.00
2022-12-23T00:26:06.335Z,97319.00
2022-12-23T00:26:16.732Z,97323.00
2022-12-23T00:26:26.712Z,97323.00
2022-12-23T00:26:36.842Z,97315.00
2022-12-23T00:26:47.094Z,97315.00
2022-12-23T00:26:57.108Z,97311.00
2022-12-23T00:27:07.118Z,97311.00
2022-12-23T00:27:17.118Z,97311.00
2022-12-23T00:27:27.134Z,97307.00
2022-12-23T00:27:37.829Z,97309.00
2022-12-23T00:27:47.190Z,97303.00
2022-12-23T00:27:57.197Z,97305.00
2022-12-23T00:28:07.229Z,97305.00
2022-12-23T00:28:17.198Z,97307.00
2022-12-23T00:28:27.198Z,97307.00
2022-12-23T00:28:37.205Z,97309.00
2022-12-23T00:28:47.213Z,97311.00
2022-12-23T00:28:57.222Z,97315.00
2022-12-23T00:29:07.234Z,97317.00
2022-12-23T00:29:17.260Z,97319.00
2022-12-23T00:29:27.272Z,97321.00
2022-12-23T00:29:37.270Z,97319.00
2022-12-23T00:29:47.275Z,97313.00
2022-12-23T00:29:57.441Z,97313.00
2022-12-23T00:30:07.427Z,97311.00
2022-12-23T00:30:17.435Z,97313.00
2022-12-23T00:30:27.446Z,97315.00
2022-12-23T00:30:37.442Z,97309.00
2022-12-23T00:30:47.730Z,97317.00
2022-12-23T00:30:57.780Z,97321.00
2022-12-23T00:31:07.798Z,97323.00
2022-12-23T00:31:17.856Z,97319.00
2022-12-23T00:31:27.965Z,97323.00
2022-12-23T00:31:38.047Z,97326.00
2022-12-23T00:31:48.127Z,97326.00
2022-12-23T00:31:58.231Z,97326.00
2022-12-23T00:32:08.229Z,97325.00
2022-12-23T00:32:18.435Z,97326.00
2022-12-23T00:32:28.506Z,97326.00
2022-12-23T00:32:38.503Z,97326.00
2022-12-23T00:32:48.500Z,97326.00
2022-12-23T00:32:58.888Z,97325.00
2022-12-23T00:33:08.922Z,97325.00
2022-12-23T00:33:18.918Z,97326.00
2022-12-23T00:33:28.934Z,97326.00
2022-12-23T00:33:38.937Z,97328.00
2022-12-23T00:33:48.943Z,97326.00
2022-12-23T00:33:59.064Z,97323.00
2022-12-23T00:34:09.098Z,97325.00
2022-12-23T00:34:19.090Z,97328.00
2022-12-23T00:34:29.095Z,97326.00
2022-12-23T00:34:39.342Z,97325.00
2022-12-23T00:34:49.348Z,97325.00
2022-12-23T00:34:59.346Z,97325.00
2022-12-23T00:35:09.345Z,97330.00
2022-12-23T00:35:19.478Z,97330.00
2022-12-23T00:35:29.477Z,97325.00
2022-12-23T00:35:39.705Z,97323.00
2022-12-23T00:35:49.692Z,97323.00
2022-12-23T00:35:59.755Z,97323.00
2022-12-23T00:36:09.864Z,97325.00
2022-12-23T00:36:19.966Z,97332.00
2022-12-23T00:36:30.162Z,97334.00
2022-12-23T00:36:40.103Z,97326.00
2022-12-23T00:36:50.154Z,97319.00
2022-12-23T00:37:00.153Z,97315.00
2022-12-23T00:37:10.156Z,97319.00
2022-12-23T00:37:20.157Z,97323.00
2022-12-23T00:37:30.171Z,97321.00
2022-12-23T00:37:40.177Z,97323.00
2022-12-23T00:37:50.184Z,97326.00
2022-12-23T00:38:00.194Z,97330.00
2022-12-23T00:38:10.211Z,97326.00
2022-12-23T00:38:20.194Z,97328.00
2022-12-23T00:38:30.202Z,97326.00
2022-12-23T00:38:40.216Z,97326.00
2022-12-23T00:38:50.202Z,97326.00
2022-12-23T00:39:00.220Z,97323.00
2022-12-23T00:39:10.255Z,97325.00
2022-12-23T00:39:20.245Z,97321.00
2022-12-23T00:39:30.245Z,97326.00
2022-12-23T00:39:40.259Z,97326.00
2022-12-23T00:39:54.727Z,97325.00
2022-12-23T00:40:06.225Z,97323.00
2022-12-23T00:40:10.295Z,97325.00
2022-12-23T00:40:20.306Z,97325.00
2022-12-23T00:40:30.316Z,97325.00
2022-12-23T00:40:40.319Z,97323.00
2022-12-23T00:40:50.417Z,97321.00
2022-12-23T00:41:00.546Z,97323.00
2022-12-23T00:41:10.552Z,97323.00
2022-12-23T00:41:20.559Z,97325.00
2022-12-23T00:41:30.567Z,97325.00
2022-12-23T00:41:40.574Z,97326.00
2022-12-23T00:41:50.597Z,97326.00
2022-12-23T00:42:00.635Z,97328.00
2022-12-23T00:42:10.670Z,97328.00
2022-12-23T00:42:20.796Z,97321.00
2022-12-23T00:42:30.794Z,97323.00
2022-12-23T00:42:41.053Z,97319.00
2022-12-23T00:42:51.053Z,97323.00
2022-12-23T00:43:01.059Z,97323.00
2022-12-23T00:43:11.169Z,97325.00
2022-12-23T00:43:21.173Z,97321.00
2022-12-23T00:43:31.153Z,97319.00
2022-12-23T00:43:41.156Z,97315.00
2022-12-23T00:43:51.160Z,97311.00
2022-12-23T00:44:01.283Z,97315.00
2022-12-23T00:44:11.283Z,97317.00
2022-12-23T00:44:21.537Z,97319.00
2022-12-23T00:44:31.582Z,97323.00
2022-12-23T00:44:41.572Z,97323.00
2022-12-23T00:44:51.563Z,97319.00
2022-12-23T00:45:01.577Z,97319.00
2022-12-23T00:45:11.583Z,97319.00
2022-12-23T00:45:21.611Z,97321.00
2022-12-23T00:45:31.704Z,97325.00
2022-12-23T00:45:41.740Z,97321.00
2022-12-23T00:45:51.817Z,97323.00
2022-12-23T00:46:01.853Z,97325.00
2022-12-23T00:46:11.940Z,97325.00
2022-12-23T00:46:22.083Z,97323.00
2022-12-23T00:46:32.165Z,97325.00
2022-12-23T00:46:42.078Z,97326.00
2022-12-23T00:46:52.123Z,97326.00
2022-12-23T00:47:02.128Z,97328.00
2022-12-23T00:47:12.144Z,97326.00
2022-12-23T00:47:22.154Z,97323.00
2022-12-23T00:47:32.168Z,97321.00
2022-12-23T00:47:42.169Z,97319.00
2022-12-23T00:47:52.209Z,97325.00
2022-12-23T00:48:02.194Z,97330.00
2022-12-23T00:48:12.200Z,97326.00
2022-12-23T00:48:22.215Z,97321.00
2022-12-23T00:48:32.222Z,97319.00
2022-12-23T00:48:42.336Z,97319.00
2022-12-23T00:48:52.339Z,97317.00
2022-12-23T00:49:02.347Z,97317.00
2022-12-23T00:49:12.361Z,97315.00
2022-12-23T00:49:22.348Z,97315.00
2022-12-23T00:49:32.610Z,97317.00
2022-12-23T00:49:42.806Z,97319.00
2022-12-23T00:49:52.823Z,97315.00
2022-12-23T00:50:03.106Z,97311.00
2022-12-23T00:50:13.083Z,97315.00
2022-12-23T00:50:23.112Z,97309.00
2022-12-23T00:50:33.108Z,97309.00
2022-12-23T00:50:43.111Z,97311.00
2022-12-23T00:50:53.119Z,97309.00
2022-12-23T00:51:03.137Z,97309.00
2022-12-23T00:51:13.149Z,97307.00
2022-12-23T00:51:23.288Z,97301.00
2022-12-23T00:51:33.296Z,97303.00
2022-12-23T00:51:43.555Z,97299.00
2022-12-23T00:51:53.552Z,97301.00
2022-12-23T00:52:03.669Z,97301.00
2022-12-23T00:52:13.943Z,97301.00
2022-12-23T00:52:23.951Z,97303.00
2022-12-23T00:52:33.960Z,97303.00
2022-12-23T00:52:44.340Z,97307.00
2022-12-23T00:52:54.337Z,97305.00
2022-12-23T00:53:04.455Z,97303.00
2022-12-23T00:53:14.716Z,97301.00
2022-12-23T00:53:24.778Z,97305.00
2022-12-23T00:53:34.783Z,97301.00
2022-12-23T00:53:44.791Z,97299.00
2022-12-23T00:53:54.804Z,97299.00
2022-12-23T00:54:04.813Z,97301.00
2022-12-23T00:54:14.830Z,97305.00
2022-12-23T00:54:24.863Z,97303.00
2022-12-23T00:54:34.856Z,97305.00
2022-12-23T00:54:44.858Z,97307.00
2022-12-23T00:54:54.862Z,97303.00
2022-12-23T00:55:04.980Z,97307.00
2022-12-23T00:55:14.975Z,97309.00
2022-12-23T00:55:24.985Z,97301.00
2022-12-23T00:55:34.990Z,97293.00
2022-12-23T00:55:44.986Z,97303.00
2022-12-23T00:55:54.988Z,97303.00
2022-12-23T00:56:05.270Z,97303.00
2022-12-23T00:56:15.325Z,97307.00
2022-12-23T00:56:25.327Z,97305.00
2022-12-23T00:56:35.336Z,97305.00
2022-12-23T00:56:45.354Z,97307.00
2022-12-23T00:56:55.345Z,97307.00
2022-12-23T00:57:05.471Z,97303.00
2022-12-23T00:57:15.476Z,97303.00
2022-12-23T00:57:25.476Z,97303.00
2022-12-23T00:57:35.492Z,97307.00
2022-12-23T00:57:45.778Z,97307.00
2022-12-23T00:57:55.774Z,97307.00
2022-12-23T00:58:05.898Z,97307.00
2022-12-23T00:58:16.185Z,97313.00
2022-12-23T00:58:26.165Z,97315.00
2022-12-23T00:58:36.175Z,97313.00
2022-12-23T00:58:46.554Z,97313.00
2022-12-23T00:58:56.552Z,97315.00
2022-12-23T00:59:06.705Z,97313.00
2022-12-23T00:59:16.946Z,97311.00
2022-12-23T00:59:26.965Z,97311.00
2022-12-23T00:59:36.975Z,97317.00
2022-12-23T00:59:46.984Z,97319.00
2022-12-23T00:59:57.002Z,97319.00
2022-12-23T01:00:07.147Z,97319.00
2022-12-23T01:00:17.134Z,97315.00
2022-12-23T01:00:27.171Z,97313.00
2022-12-23T01:00:37.171Z,97313.00
2022-12-23T01:00:47.330Z,97315.00
2022-12-23T01:00:57.475Z,97315.00
2022-12-23T01:01:07.558Z,97313.00
2022-12-23T01:01:17.648Z,97311.00
2022-12-23T01:01:28.120Z,97309.00
2022-12-23T01:01:38.177Z,97309.00
2022-12-23T01:01:48.265Z,97311.00
2022-12-23T01:01:58.546Z,97307.00
2022-12-23T01:02:08.589Z,97311.00
2022-12-23T01:02:18.586Z,97303.00
2022-12-23T01:02:28.638Z,97307.00
2022-12-23T01:02:38.825Z,97307.00
2022-12-23T01:02:48.827Z,97301.00
2022-12-23T01:02:58.999Z,97299.00
2022-12-23T01:03:09.377Z,97297.00
2022-12-23T01:03:19.260Z,97301.00
2022-12-23T01:03:29.342Z,97303.00
2022-12-23T01:03:39.381Z,97303.00
2022-12-23T01:03:49.433Z,97305.00
2022-12-23T01:03:59.419Z,97303.00
2022-12-23T01:04:09.417Z,97303.00
2022-12-23T01:04:19.417Z,97301.00
2022-12-23T01:04:29.431Z,97303.00
2022-12-23T01:04:39.434Z,97305.00
2022-12-23T01:04:49.440Z,97307.00
2022-12-23T01:04:59.436Z,97309.00
2022-12-23T01:05:09.569Z,97309.00
2022-12-23T01:05:19.560Z,97309.00
2022-12-23T01:05:29.788Z,97305.00
2022-12-23T01:05:39.791Z,97311.00
2022-12-23T01:05:49.812Z,97309.00
2022-12-23T01:05:59.802Z,97299.00
2022-12-23T01:06:09.931Z,97301.00
2022-12-23T01:06:19.933Z,97305.00
2022-12-23T01:06:30.196Z,97307.00
2022-12-23T01:06:40.209Z,97307.00
2022-12-23T01:06:50.207Z,97309.00
2022-12-23T01:07:00.213Z,97313.00
2022-12-23T01:07:10.224Z,97311.00
2022-12-23T01:07:20.248Z,97309.00
2022-12-23T01:07:30.243Z,97309.00
2022-12-23T01:07:40.254Z,97311.00
2022-12-23T01:07:50.336Z,97315.00
2022-12-23T01:08:00.341Z,97315.00
2022-12-23T01:08:10.346Z,97317.00
2022-12-23T01:08:20.378Z,97319.00
2022-12-23T01:08:30.389Z,97315.00
2022-12-23T01:08:40.387Z,97315.00
2022-12-23T01:08:50.388Z,97315.00
2022-12-23T01:09:00.409Z,97317.00
2022-12-23T01:09:10.410Z,97317.00
2022-12-23T01:09:20.426Z,97319.00
2022-12-23T01:09:30.428Z,97319.00
2022-12-23T01:09:40.444Z,97321.00
2022-12-23T01:09:50.437Z,97319.00
2022-12-23T01:10:00.454Z,97319.00
2022-12-23T01:10:10.474Z,97323.00
2022-12-23T01:10:20.588Z,97321.00
2022-12-23T01:10:30.851Z,97323.00
2022-12-23T01:10:40.857Z,97321.00
2022-12-23T01:10:50.860Z,97321.00
2022-12-23T01:11:00.866Z,97319.00
2022-12-23T01:11:10.879Z,97323.00
2022-12-23T01:11:21.027Z,97321.00
2022-12-23T01:11:31.021Z,97321.00
2022-12-23T01:11:41.036Z,97323.00
2022-12-23T01:11:51.037Z,97326.00
2022-12-23T01:12:01.147Z,97321.00
2022-12-23T01:12:11.301Z,97315.00
2022-12-23T01:12:21.302Z,97321.00
2022-12-23T01:12:31.375Z,97321.00
2022-12-23T01:12:41.372Z,97323.00
2022-12-23T01:12:51.377Z,97323.00
2022-12-23T01:13:01.379Z,97323.00
2022-12-23T01:13:11.383Z,97323.00
2022-12-23T01:13:21.532Z,97325.00
2022-12-23T01:13:31.513Z,97326.00
2022-12-23T01:13:41.632Z,97325.00
2022-12-23T01:13:51.767Z,97323.00
2022-12-23T01:14:01.888Z,97323.00
2022-12-23T01:14:11.891Z,97323.00
2022-12-23T01:14:22.159Z,97319.00
2022-12-23T01:14:32.169Z,97323.00
2022-12-23T01:14:42.171Z,97326.00
2022-12-23T01:14:52.200Z,97328.00
2022-12-23T01:15:02.227Z,97325.00
2022-12-23T01:15:12.231Z,97323.00
2022-12-23T01:15:22.237Z,97313.00
2022-12-23T01:15:32.244Z,97319.00
2022-12-23T01:15:42.362Z,97321.00
2022-12-23T01:15:52.401Z,97321.00
2022-12-23T01:16:02.655Z,97319.00
2022-12-23T01:16:17.133Z,97317.00
2022-12-23T01:16:22.743Z,97317.00
2022-12-23T01:16:32.752Z,97317.00
2022-12-23T01:16:42.853Z,97321.00
2022-12-23T01:16:52.925Z,97317.00
2022-12-23T01:17:03.008Z,97313.00
2022-12-23T01:17:13.272Z,97315.00
2022-12-23T01:17:23.252Z,97315.00
2022-12-23T01:17:33.129Z,97317.00
2022-12-23T01:17:43.375Z,97317.00
2022-12-23T01:17:53.369Z,97319.00
2022-12-23T01:18:03.488Z,97317.00
2022-12-23T01:18:13.748Z,97323.00
2022-12-23T01:18:23.749Z,97325.00
2022-12-23T01:18:33.762Z,97325.00
2022-12-23T01:18:43.813Z,97325.00
2022-12-23T01:18:53.798Z,97323.00
2022-12-23T01:19:03.806Z,97323.00
2022-12-23T01:19:13.807Z,97323.00
2022-12-23T01:19:23.823Z,97323.00
2022-12-23T01:19:33.823Z,97323.00
2022-12-23T01:19:43.837Z,97325.00
2022-12-23T01:19:53.837Z,97325.00
2022-12-23T01:20:03.975Z,97326.00
2022-12-23T01:20:13.974Z,97328.00
2022-12-23T01:20:24.112Z,97328.00
2022-12-23T01:20:34.117Z,97326.00
2022-12-23T01:20:44.135Z,97326.00
2022-12-23T01:20:54.137Z,97325.00
2022-12-23T01:21:04.269Z,97328.00
2022-12-23T01:21:14.271Z,97326.00
2022-12-23T01:21:24.393Z,97323.00
2022-12-23T01:21:34.653Z,97319.00
2022-12-23T01:21:44.653Z,97317.00
2022-12-23T01:21:54.656Z,97323.00
2022-12-23T01:22:05.039Z,97323.00
2022-12-23T01:22:15.045Z,97328.00
2022-12-23T01:22:25.036Z,97328.00
2022-12-23T01:22:35.036Z,97328.00
2022-12-23T01:22:45.161Z,97326.00
2022-12-23T01:22:55.167Z,97330.00
2022-12-23T01:23:05.288Z,97328.00
2022-12-23T01:23:15.305Z,97325.00
2022-12-23T01:23:25.293Z,97325.00
2022-12-23T01:23:35.297Z,97325.00
2022-12-23T01:23:45.438Z,97330.00
2022-12-23T01:23:55.455Z,97328.00
2022-12-23T01:24:05.456Z,97330.00
2022-12-23T01:24:15.461Z,97328.00
2022-12-23T01:24:25.469Z,97326.00
2022-12-23T01:24:35.464Z,97330.00
2022-12-23T01:24:45.595Z,97330.00
2022-12-23T01:24:55.628Z,97336.00
2022-12-23T01:25:05.602Z,97342.00
2022-12-23T01:25:15.602Z,97344.00
2022-12-23T01:25:25.861Z,97328.00
2022-12-23T01:25:35.860Z,97326.00
2022-12-23T01:25:45.932Z,97340.00
2022-12-23T01:25:55.941Z,97328.00
2022-12-23T01:26:05.970Z,97323.00
2022-12-23T01:26:15.972Z,97328.00
2022-12-23T01:26:25.970Z,97338.00
2022-12-23T01:26:35.998Z,97336.00
2022-12-23T01:26:46.001Z,97342.00
2022-12-23T01:26:56.004Z,97340.00
2022-12-23T01:27:06.373Z,97342.00
2022-12-23T01:27:16.372Z,97340.00
2022-12-23T01:27:26.508Z,97340.00
2022-12-23T01:27:36.755Z,97344.00
2022-12-23T01:27:46.868Z,97344.00
2022-12-23T01:27:56.884Z,97342.00
2022-12-23T01:28:07.154Z,97342.00
2022-12-23T01:28:17.151Z,97338.00
2022-12-23T01:28:27.176Z,97340.00
2022-12-23T01:28:37.167Z,97342.00
2022-12-23T01:28:47.180Z,97336.00
2022-12-23T01:28:57.178Z,97338.00
2022-12-23T01:29:07.191Z,97336.00
2022-12-23T01:29:17.205Z,97340.00
2022-12-23T01:29:27.206Z,97342.00
2022-12-23T01:29:37.221Z,97342.00
2022-12-23T01:29:47.229Z,97340.00
2022-12-23T01:29:57.336Z,97342.00
2022-12-23T01:30:07.393Z,97340.00
2022-12-23T01:30:17.400Z,97338.00
2022-12-23T01:30:27.516Z,97340.00
2022-12-23T01:30:37.534Z,97340.00
2022-12-23T01:30:47.642Z,97340.00
2022-12-23T01:30:57.908Z,97338.00
2022-12-23T01:31:07.911Z,97338.00
2022-12-23T01:31:17.969Z,97344.00
2022-12-23T01:31:28.043Z,97340.00
2022-12-23T01:31:38.194Z,97336.00
2022-12-23T01:31:48.250Z,97336.00
2022-12-23T01:31:58.244Z,97336.00
2022-12-23T01:32:08.352Z,97330.00
2022-12-23T01:32:18.364Z,97328.00
2022-12-23T01:32:28.400Z,97330.00
2022-12-23T01:32:38.644Z,97334.00
2022-12-23T01:32:48.762Z,97338.00
2022-12-23T01:32:58.789Z,97338.00
2022-12-23T01:33:09.067Z,97328.00
2022-12-23T01:33:19.075Z,97332.00
2022-12-23T01:33:29.068Z,97336.00
2022-12-23T01:33:39.071Z,97338.00
2022-12-23T01:33:49.079Z,97338.00
2022-12-23T01:33:59.072Z,97332.00
2022-12-23T01:34:09.189Z,97328.00
2022-12-23T01:34:19.205Z,97336.00
2022-12-23T01:34:35.993Z,97336.00
2022-12-23T01:34:39.221Z,97336.00
2022-12-23T01:34:49.329Z,97336.00
2022-12-23T01:34:59.332Z,97338.00
2022-12-23T01:35:09.342Z,97338.00
2022-12-23T01:35:19.354Z,97342.00
2022-12-23T01:35:29.369Z,97346.00
2022-12-23T01:35:39.381Z,97348.00
2022-12-23T01:35:49.384Z,97346.00
2022-12-23T01:35:59.381Z,97340.00
2022-12-23T01:36:09.404Z,97344.00
2022-12-23T01:36:19.389Z,97346.00
2022-12-23T01:36:29.504Z,97344.00
2022-12-23T01:36:39.517Z,97338.00
2022-12-23T01:36:49.631Z,97342.00
2022-12-23T01:36:59.634Z,97344.00
2022-12-23T01:37:09.752Z,97348.00
2022-12-23T01:37:19.753Z,97346.00
2022-12-23T01:37:29.883Z,97348.00
2022-12-23T01:37:40.149Z,97348.00
2022-12-23T01:37:50.151Z,97348.00
2022-12-23T01:38:00.175Z,97352.00
2022-12-23T01:38:10.164Z,97350.00
2022-12-23T01:38:20.171Z,97346.00
2022-12-23T01:38:30.293Z,97348.00
2022-12-23T01:38:40.294Z,97346.00
2022-12-23T01:38:50.419Z,97348.00
2022-12-23T01:39:00.416Z,97348.00
2022-12-23T01:39:10.540Z,97354.00
2022-12-23T01:39:20.547Z,97354.00
2022-12-23T01:39:30.543Z,97358.00
2022-12-23T01:39:40.562Z,97354.00
2022-12-23T01:39:50.564Z,97358.00
2022-12-23T01:40:00.572Z,97352.00
2022-12-23T01:40:10.689Z,97350.00
2022-12-23T01:40:20.690Z,97352.00
2022-12-23T01:40:30.816Z,97346.00
2022-12-23T01:40:40.815Z,97350.00
2022-12-23T01:40:50.935Z,97352.00
2022-12-23T01:41:00.939Z,97360.00
2022-12-23T01:41:11.059Z,97364.00
2022-12-23T01:41:21.061Z,97366.00
2022-12-23T01:41:31.317Z,97362.00
2022-12-23T01:41:41.311Z,97364.00
2022-12-23T01:41:51.431Z,97368.00
2022-12-23T01:42:01.720Z,97366.00
2022-12-23T01:42:11.847Z,97364.00
2022-12-23T01:42:21.851Z,97366.00
2022-12-23T01:42:32.143Z,97366.00
2022-12-23T01:42:42.146Z,97366.00
2022-12-23T01:42:52.148Z,97366.00
2022-12-23T01:43:02.152Z,97364.00
2022-12-23T01:43:12.161Z,97362.00
2022-12-23T01:43:22.174Z,97368.00
2022-12-23T01:43:32.292Z,97370.00
2022-12-23T01:43:42.265Z,97368.00
2022-12-23T01:43:52.271Z,97370.00
2022-12-23T01:44:02.271Z,97372.00
2022-12-23T01:44:12.544Z,97364.00
2022-12-23T01:44:22.553Z,97366.00
2022-12-23T01:44:32.549Z,97366.00
2022-12-23T01:44:42.558Z,97362.00
2022-12-23T01:44:52.580Z,97358.00
2022-12-23T01:45:02.637Z,97370.00
2022-12-23T01:45:12.634Z,97370.00
2022-12-23T01:45:22.642Z,97364.00
2022-12-23T01:45:32.788Z,97366.00
2022-12-23T01:45:42.873Z,97368.00
2022-12-23T01:45:53.163Z,97368.00
2022-12-23T01:46:03.276Z,97366.00
2022-12-23T01:46:13.315Z,97368.00
2022-12-23T01:46:23.442Z,97368.00
2022-12-23T01:46:33.367Z,97368.00
2022-12-23T01:46:43.391Z,97364.00
2022-12-23T01:46:53.395Z,97364.00
2022-12-23T01:47:03.528Z,97366.00
2022-12-23T01:47:13.531Z,97364.00
2022-12-23T01:47:23.535Z,97364.00
2022-12-23T01:47:33.984Z,97366.00
2022-12-23T01:47:43.996Z,97368.00
2022-12-23T01:47:54.001Z,97370.00
2022-12-23T01:48:04.012Z,97372.00
2022-12-23T01:48:14.061Z,97377.00
2022-12-23T01:48:24.048Z,97375.00
2022-12-23T01:48:34.176Z,97375.00
2022-12-23T01:48:44.190Z,97375.00
2022-12-23T01:48:54.320Z,97375.00
2022-12-23T01:49:04.321Z,97373.00
2022-12-23T01:49:14.447Z,97379.00
2022-12-23T01:49:24.466Z,97375.00
2022-12-23T01:49:34.463Z,97375.00
2022-12-23T01:49:44.458Z,97373.00
2022-12-23T01:49:54.582Z,97373.00
2022-12-23T01:50:04.608Z,97370.00
2022-12-23T01:50:14.615Z,97368.00
2022-12-23T01:50:24.644Z,97373.00
2022-12-23T01:50:34.627Z,97377.00
2022-12-23T01:50:44.745Z,97377.00
2022-12-23T01:50:54.896Z,97377.00
2022-12-23T01:51:04.894Z,97373.00
2022-12-23T01:51:14.901Z,97372.00
2022-12-23T01:51:24.921Z,97372.00
2022-12-23T01:51:34.930Z,97370.00
2022-12-23T01:51:44.934Z,97366.00
2022-12-23T01:51:54.940Z,97370.00
2022-12-23T01:52:04.956Z,97372.00
2022-12-23T01:52:14.955Z,97370.00
2022-12-23T01:52:24.968Z,97370.00
2022-12-23T01:52:34.981Z,97373.00
2022-12-23T01:52:44.995Z,97375.00
2022-12-23T01:52:55.012Z,97373.00
2022-12-23T01:53:08.182Z,97373.00
2022-12-23T01:53:15.142Z,97373.00
2022-12-23T01:53:25.249Z,97372.00
2022-12-23T01:53:35.246Z,97372.00
2022-12-23T01:53:45.516Z,97372.00
2022-12-23T01:53:55.504Z,97373.00
2022-12-23T01:54:05.630Z,97375.00
2022-12-23T01:54:15.923Z,97375.00
2022-12-23T01:54:25.926Z,97379.00
2022-12-23T01:54:35.936Z,97377.00
2022-12-23T01:54:45.965Z,97377.00
2022-12-23T01:54:55.957Z,97377.00
2022-12-23T01:55:06.087Z,97377.00
2022-12-23T01:55:16.094Z,97377.00
2022-12-23T01:55:26.095Z,97377.00
2022-12-23T01:55:36.100Z,97377.00
2022-12-23T01:55:46.219Z,97377.00
2022-12-23T01:55:56.363Z,97375.00
2022-12-23T01:56:06.372Z,97375.00
2022-12-23T01:56:16.368Z,97379.00
2022-12-23T01:56:26.368Z,97377.00
2022-12-23T01:56:36.366Z,97377.00
2022-12-23T01:56:46.496Z,97381.00
2022-12-23T01:56:56.495Z,97383.00
2022-12-23T01:57:06.620Z,97379.00
2022-12-23T01:57:16.630Z,97381.00
2022-12-23T01:57:26.763Z,97381.00
2022-12-23T01:57:36.778Z,97377.00
2022-12-23T01:57:46.793Z,97377.00
2022-12-23T01:57:56.790Z,97379.00
2022-12-23T01:58:06.827Z,97379.00